METAR Data
IDs: Format: Raw Decoded Include TAF

Data at: 0315 UTC 25 Feb 2021

KNOW 250255Z AUTO 13005KT 10SM OVC120 05/02 A3047 RMK AO2 T00530021